Time;durP1;ratioP1;P1;durP2;ratioP2;P2;SDS_P1;SDS_P2;PMS_P1;PMS_P2;Temp;Humidity;BMP_temperature;BMP_pressure;BME280_temperature;BME280_humidity;BME280_pressure;Samples;Min_cycle;Max_cycle;Signal;HPM_P1;HPM_P2
2021/08/10 00:01:30;;;;;;;3.57;3.23;;;16.00;99.90;;;;;;5103277;28;20235;-63
2021/08/10 00:03:58;;;;;;;5.93;3.60;;;16.00;99.90;;;;;;5108320;28;20200;-63
2021/08/10 00:06:27;;;;;;;3.77;3.50;;;16.00;99.90;;;;;;5106622;28;20194;-65
2021/08/10 00:08:55;;;;;;;7.53;4.10;;;16.10;99.90;;;;;;5107734;28;20257;-65
2021/08/10 00:11:25;;;;;;;4.20;3.90;;;16.10;99.90;;;;;;5108293;28;20202;-65
2021/08/10 00:13:53;;;;;;;6.33;3.90;;;16.00;99.90;;;;;;5092487;28;20200;-66
2021/08/10 00:16:21;;;;;;;6.27;3.90;;;16.00;99.90;;;;;;5111531;28;20183;-66
2021/08/10 00:18:50;;;;;;;6.37;3.73;;;16.00;99.90;;;;;;5111535;28;20228;-65
2021/08/10 00:21:18;;;;;;;5.37;3.77;;;15.90;99.90;;;;;;5111092;28;20182;-65
2021/08/10 00:23:46;;;;;;;5.03;4.20;;;15.90;99.90;;;;;;5108053;28;20195;-66
2021/08/10 00:26:15;;;;;;;5.87;3.80;;;15.90;99.90;;;;;;5110256;28;20200;-65
2021/08/10 00:28:44;;;;;;;6.63;3.90;;;15.90;99.90;;;;;;5109523;28;20202;-66
2021/08/10 00:31:13;;;;;;;4.87;3.80;;;15.80;99.90;;;;;;5104625;28;20373;-66
2021/08/10 00:33:41;;;;;;;7.53;3.77;;;15.80;99.90;;;;;;5117688;28;20231;-65
2021/08/10 00:36:12;;;;;;;7.83;3.70;;;15.70;99.90;;;;;;5107221;28;20436;-65
2021/08/10 00:38:41;;;;;;;4.93;3.90;;;15.70;99.90;;;;;;5115694;27;20193;-65
2021/08/10 00:41:10;;;;;;;6.40;3.47;;;15.70;99.90;;;;;;5110919;28;20361;-66
2021/08/10 00:43:40;;;;;;;5.60;3.77;;;15.70;99.90;;;;;;5117489;28;20178;-65
2021/08/10 00:46:12;;;;;;;4.97;3.50;;;15.60;99.90;;;;;;5109471;28;20179;-65
2021/08/10 00:48:41;;;;;;;4.10;3.47;;;15.60;99.90;;;;;;5108658;28;20175;-65
2021/08/10 00:51:11;;;;;;;3.70;3.33;;;15.60;99.90;;;;;;5103854;28;20203;-65
2021/08/10 00:53:40;;;;;;;5.83;3.50;;;15.50;99.90;;;;;;5113369;27;20171;-65
2021/08/10 00:56:09;;;;;;;6.07;3.40;;;15.40;99.90;;;;;;5103418;28;20187;-65
2021/08/10 00:58:39;;;;;;;3.87;3.23;;;15.40;99.90;;;;;;5107890;28;20183;-66
2021/08/10 01:01:07;;;;;;;3.63;3.07;;;15.40;99.90;;;;;;5104093;28;20215;-65
2021/08/10 01:03:37;;;;;;;5.67;3.37;;;15.40;99.90;;;;;;5112298;28;20192;-65
2021/08/10 01:06:08;;;;;;;4.17;3.60;;;15.30;99.90;;;;;;5114665;28;20206;-66
2021/08/10 01:08:48;;;;;;;4.73;3.50;;;15.30;99.90;;;;;;5120153;27;20186;-66
2021/08/10 01:11:24;;;;;;;3.90;3.20;;;15.20;99.90;;;;;;5116300;28;20202;-66
2021/08/10 01:13:57;;;;;;;3.53;3.27;;;15.20;99.90;;;;;;5104924;27;20187;-63
2021/08/10 01:16:35;;;;;;;3.80;3.50;;;15.20;99.90;;;;;;5111389;28;20260;-63
2021/08/10 01:19:27;;;;;;;3.83;3.10;;;15.10;99.90;;;;;;5110183;28;20194;-63
2021/08/10 01:21:59;;;;;;;5.97;3.00;;;15.20;99.90;;;;;;5125445;27;20171;-63
2021/08/10 01:24:29;;;;;;;5.87;3.40;;;15.10;99.90;;;;;;5108784;28;20676;-63
2021/08/10 01:27:24;;;;;;;3.57;3.27;;;15.10;99.90;;;;;;5121128;28;20303;-63
2021/08/10 01:30:01;;;;;;;4.93;3.30;;;15.10;99.90;;;;;;5111148;28;20419;-63
2021/08/10 01:32:31;;;;;;;4.03;3.43;;;15.10;99.90;;;;;;5114406;27;20198;-63
2021/08/10 01:35:02;;;;;;;3.53;3.23;;;15.10;99.90;;;;;;5115857;27;20174;-63
2021/08/10 01:37:32;;;;;;;3.57;3.33;;;15.20;99.90;;;;;;5105041;28;20183;-63
2021/08/10 01:40:04;;;;;;;4.13;3.33;;;15.20;99.90;;;;;;5117002;27;20485;-63
2021/08/10 01:42:33;;;;;;;3.43;3.20;;;15.30;99.90;;;;;;5126680;27;20187;-63
2021/08/10 01:45:03;;;;;;;3.73;3.43;;;15.20;99.90;;;;;;5110724;28;20195;-63
2021/08/10 01:47:33;;;;;;;4.93;3.40;;;15.20;99.90;;;;;;5111026;28;20179;-63
2021/08/10 01:50:03;;;;;;;3.90;3.60;;;15.20;99.90;;;;;;5104620;28;20179;-63
2021/08/10 01:52:32;;;;;;;3.57;3.23;;;15.20;99.90;;;;;;5115937;28;20191;-63
2021/08/10 01:55:00;;;;;;;3.13;2.90;;;15.20;99.90;;;;;;5108058;28;20179;-63
2021/08/10 01:57:29;;;;;;;3.53;3.23;;;15.10;99.90;;;;;;5121227;27;20619;-63
2021/08/10 01:59:58;;;;;;;3.50;3.30;;;15.20;99.90;;;;;;5110361;28;20230;-63
2021/08/10 02:02:27;;;;;;;4.67;3.47;;;15.10;99.90;;;;;;5110721;28;20192;-63
2021/08/10 02:04:57;;;;;;;5.90;3.37;;;15.00;99.90;;;;;;5105441;28;20240;-63
2021/08/10 02:07:25;;;;;;;4.47;3.50;;;15.00;99.90;;;;;;5113452;28;20178;-63
2021/08/10 02:09:55;;;;;;;5.33;3.20;;;15.00;99.90;;;;;;5118752;27;20256;-63
2021/08/10 02:12:23;;;;;;;5.37;3.67;;;14.90;99.90;;;;;;5094382;28;20196;-63
2021/08/10 02:14:59;;;;;;;3.87;3.50;;;14.90;99.90;;;;;;5107669;28;20509;-63
2021/08/10 02:17:27;;;;;;;3.97;3.57;;;14.90;99.90;;;;;;5111241;28;20182;-63
2021/08/10 02:19:57;;;;;;;4.17;3.87;;;14.80;99.90;;;;;;5110545;28;20414;-63
2021/08/10 02:22:26;;;;;;;4.03;3.63;;;14.70;99.90;;;;;;5109736;28;20307;-63
2021/08/10 02:25:00;;;;;;;4.07;3.67;;;14.70;99.90;;;;;;5109774;28;20180;-63
2021/08/10 02:27:34;;;;;;;4.07;3.63;;;14.70;99.90;;;;;;5115676;28;20194;-63
2021/08/10 02:30:06;;;;;;;11.53;3.93;;;14.70;99.90;;;;;;5117005;28;20185;-63
2021/08/10 02:32:36;;;;;;;4.77;3.90;;;14.60;99.90;;;;;;5111827;28;20263;-63
2021/08/10 02:35:07;;;;;;;4.03;3.73;;;14.60;99.90;;;;;;5108034;28;20190;-63
2021/08/10 02:37:38;;;;;;;4.70;4.10;;;14.70;99.90;;;;;;5117833;27;20437;-63
2021/08/10 02:40:10;;;;;;;6.30;3.77;;;14.70;99.90;;;;;;5114167;28;20318;-63
2021/08/10 02:42:39;;;;;;;5.17;4.43;;;14.70;99.90;;;;;;5101724;28;20190;-63
2021/08/10 02:45:08;;;;;;;7.07;4.10;;;14.70;99.90;;;;;;5107643;28;20179;-63
2021/08/10 02:47:37;;;;;;;6.10;4.13;;;14.70;99.90;;;;;;5112556;28;20179;-63
2021/08/10 02:50:08;;;;;;;6.70;4.60;;;14.70;99.90;;;;;;5123281;27;20186;-63
2021/08/10 02:52:36;;;;;;;6.67;4.07;;;14.70;99.90;;;;;;5118287;27;20194;-63
2021/08/10 02:55:06;;;;;;;5.73;4.30;;;14.70;99.90;;;;;;5118519;27;20174;-62
2021/08/10 02:57:38;;;;;;;4.27;3.87;;;14.70;99.90;;;;;;5111256;28;20190;-63
2021/08/10 03:00:09;;;;;;;4.83;4.33;;;14.70;99.90;;;;;;5103625;28;20355;-63
2021/08/10 03:02:42;;;;;;;4.63;4.10;;;14.70;99.90;;;;;;5111907;28;20182;-63
2021/08/10 03:05:15;;;;;;;5.63;3.83;;;14.70;99.90;;;;;;5105955;28;20403;-63
2021/08/10 03:07:51;;;;;;;5.00;4.40;;;14.70;99.90;;;;;;5109381;28;20308;-68
2021/08/10 03:10:20;;;;;;;5.13;4.00;;;14.70;99.90;;;;;;5115877;27;20229;-68
2021/08/10 03:12:50;;;;;;;8.67;4.13;;;14.70;99.90;;;;;;5116728;28;20229;-68
2021/08/10 03:15:24;;;;;;;5.57;4.27;;;14.60;99.90;;;;;;5109902;28;20357;-68
2021/08/10 03:17:53;;;;;;;9.73;4.17;;;14.60;99.90;;;;;;5110269;28;20167;-69
2021/08/10 03:20:25;;;;;;;5.00;4.50;;;14.70;99.90;;;;;;5103743;27;20237;-71
2021/08/10 03:22:53;;;;;;;7.83;4.03;;;14.60;99.90;;;;;;5109257;28;20179;-71
2021/08/10 03:25:23;;;;;;;7.60;4.60;;;14.60;99.90;;;;;;5109494;28;20191;-71
2021/08/10 03:27:52;;;;;;;7.10;4.43;;;14.60;99.90;;;;;;5106561;28;20188;-71
2021/08/10 03:30:20;;;;;;;5.00;4.40;;;14.60;99.90;;;;;;5108175;28;20198;-71
2021/08/10 03:32:52;;;;;;;7.93;4.33;;;14.60;99.90;;;;;;5110595;28;20210;-71
2021/08/10 03:35:23;;;;;;;6.67;4.80;;;14.50;99.90;;;;;;5111142;28;20411;-70
2021/08/10 03:37:52;;;;;;;5.17;4.57;;;14.60;99.90;;;;;;5108869;28;20206;-70
2021/08/10 03:40:20;;;;;;;7.50;4.83;;;14.60;99.90;;;;;;5105278;28;20187;-71
2021/08/10 03:42:49;;;;;;;6.37;4.83;;;14.50;99.90;;;;;;5109841;28;20182;-71
2021/08/10 03:45:22;;;;;;;7.40;4.90;;;14.50;99.90;;;;;;5112779;28;20175;-71
2021/08/10 03:47:51;;;;;;;7.70;4.57;;;14.60;99.90;;;;;;5105572;28;20422;-71
2021/08/10 03:50:20;;;;;;;8.73;5.00;;;14.60;99.90;;;;;;5105023;28;20188;-71
2021/08/10 03:52:51;;;;;;;8.87;5.17;;;14.60;99.90;;;;;;5109215;28;20264;-70
2021/08/10 03:55:21;;;;;;;11.23;5.13;;;14.60;99.90;;;;;;5104032;28;20515;-70
2021/08/10 03:57:50;;;;;;;8.77;5.00;;;14.60;99.90;;;;;;5100581;28;20695;-71
2021/08/10 04:00:19;;;;;;;6.87;4.97;;;14.60;99.90;;;;;;5090889;28;20211;-70
2021/08/10 04:02:53;;;;;;;9.70;5.30;;;14.70;99.90;;;;;;5106598;28;20188;-71
2021/08/10 04:05:22;;;;;;;7.17;5.10;;;14.70;99.90;;;;;;5114327;28;20182;-71
2021/08/10 04:07:52;;;;;;;5.00;4.50;;;14.70;99.90;;;;;;5109990;28;20198;-70
2021/08/10 04:10:20;;;;;;;7.77;5.07;;;14.70;99.90;;;;;;5115045;28;20199;-71
2021/08/10 04:13:32;;;;;;;6.27;5.37;;;14.70;99.90;;;;;;5108591;27;20562;-70
2021/08/10 04:16:03;;;;;;;7.00;5.50;;;14.80;99.90;;;;;;5109661;28;20579;-71
2021/08/10 04:18:35;;;;;;;5.47;4.97;;;14.80;99.90;;;;;;5110859;27;20582;-71
2021/08/10 04:21:03;;;;;;;8.30;5.40;;;14.80;99.90;;;;;;5111067;27;20442;-71
2021/08/10 04:23:33;;;;;;;6.60;5.50;;;14.80;99.90;;;;;;5116383;28;20183;-71
2021/08/10 04:26:01;;;;;;;7.57;6.10;;;14.80;99.90;;;;;;5115664;28;20205;-71
2021/08/10 04:28:30;;;;;;;8.77;5.73;;;14.80;99.90;;;;;;5110558;28;20175;-71
2021/08/10 04:30:58;;;;;;;7.73;6.70;;;14.80;99.90;;;;;;5111883;28;20433;-71
2021/08/10 04:33:26;;;;;;;9.60;5.90;;;14.80;99.90;;;;;;5104585;28;20199;-70
2021/08/10 04:35:55;;;;;;;11.10;5.83;;;14.80;99.90;;;;;;5119542;28;20445;-70
2021/08/10 04:38:23;;;;;;;11.83;6.07;;;14.80;99.90;;;;;;5108015;28;20175;-71
2021/08/10 04:40:53;;;;;;;8.27;5.50;;;14.70;99.90;;;;;;5113103;28;20208;-71
2021/08/10 04:43:21;;;;;;;6.83;6.13;;;14.80;99.90;;;;;;5112072;28;20178;-71
2021/08/10 04:45:50;;;;;;;7.80;6.00;;;14.80;99.90;;;;;;5109561;28;20175;-71
2021/08/10 04:48:18;;;;;;;10.63;6.30;;;14.80;99.90;;;;;;5117064;28;20178;-71
2021/08/10 04:50:46;;;;;;;9.50;6.17;;;14.80;99.90;;;;;;5120352;27;20268;-70
2021/08/10 04:53:14;;;;;;;8.77;5.93;;;14.80;99.90;;;;;;5110537;28;20199;-71
2021/08/10 04:55:42;;;;;;;12.53;6.37;;;14.80;99.90;;;;;;5117155;28;20179;-72
2021/08/10 04:58:12;;;;;;;7.43;5.93;;;14.80;99.90;;;;;;5125580;27;20187;-71
2021/08/10 05:00:43;;;;;;;10.10;6.30;;;14.80;99.90;;;;;;5110673;28;20338;-71
2021/08/10 05:03:13;;;;;;;6.53;5.53;;;14.80;99.90;;;;;;5110260;27;20251;-71
2021/08/10 05:05:42;;;;;;;6.47;5.63;;;14.80;99.90;;;;;;5116714;28;20330;-71
2021/08/10 05:08:10;;;;;;;9.07;5.67;;;14.80;99.90;;;;;;5110762;27;20282;-72
2021/08/10 05:10:39;;;;;;;7.60;6.13;;;14.80;99.90;;;;;;5120201;27;20531;-71
2021/08/10 05:13:07;;;;;;;8.87;5.47;;;14.80;99.90;;;;;;5105996;27;20191;-71
2021/08/10 05:15:37;;;;;;;15.47;6.00;;;14.90;99.90;;;;;;5114428;28;20186;-69
2021/08/10 05:18:05;;;;;;;8.77;5.30;;;14.90;99.90;;;;;;5111612;28;20185;-68
2021/08/10 05:20:34;;;;;;;8.27;5.53;;;14.90;99.90;;;;;;5117089;28;20183;-69
2021/08/10 05:23:02;;;;;;;7.27;5.43;;;14.90;99.90;;;;;;5112181;27;20179;-68
2021/08/10 05:25:31;;;;;;;6.73;5.20;;;15.00;99.90;;;;;;5117686;28;20509;-69
2021/08/10 05:27:59;;;;;;;6.90;4.90;;;15.00;99.90;;;;;;5115545;28;20224;-69
2021/08/10 05:30:30;;;;;;;6.43;5.23;;;15.10;99.90;;;;;;5114450;28;20216;-68
2021/08/10 05:32:59;;;;;;;8.93;5.43;;;15.10;99.90;;;;;;5115913;28;20206;-69
2021/08/10 05:35:29;;;;;;;6.00;4.93;;;15.20;99.90;;;;;;5117013;28;20170;-68
2021/08/10 05:37:57;;;;;;;7.70;4.90;;;15.20;99.90;;;;;;5106142;28;20232;-68
2021/08/10 05:40:25;;;;;;;9.53;5.00;;;15.20;99.90;;;;;;5108548;27;20187;-68
2021/08/10 05:42:53;;;;;;;9.70;5.23;;;15.30;99.90;;;;;;5112020;28;20293;-69
2021/08/10 05:45:21;;;;;;;8.70;4.70;;;15.30;99.90;;;;;;5115450;28;20194;-69
2021/08/10 05:47:50;;;;;;;6.60;5.20;;;15.30;99.90;;;;;;5111134;28;20184;-69
2021/08/10 05:50:20;;;;;;;9.17;5.13;;;15.30;99.90;;;;;;5113125;28;20360;-69
2021/08/10 05:52:49;;;;;;;8.03;4.57;;;15.40;99.90;;;;;;5110263;28;20195;-69
2021/08/10 05:55:18;;;;;;;8.13;4.90;;;15.40;99.90;;;;;;5115436;28;20191;-68
2021/08/10 05:57:46;;;;;;;6.07;4.47;;;15.50;99.90;;;;;;5114231;27;20214;-68
2021/08/10 06:00:15;;;;;;;9.43;4.93;;;15.50;99.90;;;;;;5118273;27;20211;-69
2021/08/10 06:02:46;;;;;;;5.80;4.67;;;15.60;99.90;;;;;;5107353;28;20281;-69
2021/08/10 06:05:15;;;;;;;4.93;4.43;;;15.70;99.90;;;;;;5105236;28;20191;-69
2021/08/10 06:07:45;;;;;;;6.87;4.60;;;15.70;99.90;;;;;;5117121;27;20175;-69
2021/08/10 06:10:13;;;;;;;5.67;4.77;;;15.80;99.90;;;;;;5111740;27;20326;-69
2021/08/10 06:12:42;;;;;;;6.80;4.37;;;16.00;99.90;;;;;;5111422;27;20210;-69
2021/08/10 06:15:11;;;;;;;7.47;4.40;;;16.00;99.90;;;;;;5113002;28;20415;-69
2021/08/10 06:17:39;;;;;;;8.00;4.73;;;16.00;99.90;;;;;;5109272;28;20462;-69
2021/08/10 06:20:09;;;;;;;10.53;5.00;;;16.00;99.90;;;;;;5114111;28;20186;-69
2021/08/10 06:22:37;;;;;;;8.63;4.90;;;16.00;99.90;;;;;;5119400;27;20515;-69
2021/08/10 06:25:08;;;;;;;8.20;4.70;;;16.10;99.90;;;;;;5114089;28;20198;-69
2021/08/10 06:27:36;;;;;;;7.20;5.10;;;16.00;99.90;;;;;;5108507;27;20173;-69
2021/08/10 06:30:06;;;;;;;5.63;4.93;;;16.00;99.90;;;;;;5111442;28;20186;-69
2021/08/10 06:32:34;;;;;;;5.83;4.80;;;16.10;99.90;;;;;;5117349;27;20391;-69
2021/08/10 06:35:03;;;;;;;5.40;3.90;;;16.20;99.90;;;;;;5116729;27;20187;-66
2021/08/10 06:37:34;;;;;;;7.50;4.40;;;16.20;99.90;;;;;;5117654;28;20175;-68
2021/08/10 06:40:02;;;;;;;7.43;4.10;;;16.30;99.90;;;;;;5106930;28;20403;-69
2021/08/10 06:42:32;;;;;;;6.53;4.13;;;16.40;99.90;;;;;;5112256;27;20426;-69
2021/08/10 06:45:01;;;;;;;4.70;3.73;;;16.60;99.90;;;;;;5115579;28;20177;-69
2021/08/10 06:47:29;;;;;;;4.40;3.57;;;16.70;99.90;;;;;;5111113;28;20217;-69
2021/08/10 06:49:58;;;;;;;3.77;3.33;;;16.80;99.90;;;;;;5115091;28;20182;-69
2021/08/10 06:52:26;;;;;;;4.43;3.23;;;16.90;99.90;;;;;;5113148;28;20442;-69
2021/08/10 06:54:55;;;;;;;6.00;3.57;;;17.10;99.90;;;;;;5109043;28;20212;-69
2021/08/10 06:57:23;;;;;;;3.43;3.23;;;17.40;99.90;;;;;;5101063;28;20200;-68
2021/08/10 06:59:52;;;;;;;4.77;3.10;;;17.60;99.90;;;;;;5104965;28;20221;-69
2021/08/10 07:02:23;;;;;;;5.90;3.40;;;17.60;99.90;;;;;;5102507;28;20217;-69
2021/08/10 07:04:52;;;;;;;5.90;3.43;;;17.40;99.90;;;;;;5105056;28;20318;-69
2021/08/10 07:07:20;;;;;;;6.60;3.70;;;17.30;99.90;;;;;;5106146;28;20181;-69
2021/08/10 07:09:52;;;;;;;3.83;3.53;;;17.20;99.90;;;;;;5113029;28;20327;-69
2021/08/10 07:12:23;;;;;;;3.93;3.67;;;17.20;99.90;;;;;;5119228;27;20224;-69
2021/08/10 07:14:52;;;;;;;5.53;3.60;;;17.20;99.90;;;;;;5109777;27;20201;-69
2021/08/10 07:17:21;;;;;;;8.43;4.20;;;17.40;99.90;;;;;;5115932;27;20182;-69
2021/08/10 07:19:49;;;;;;;5.73;5.10;;;17.70;99.90;;;;;;5111657;27;20185;-69
2021/08/10 07:22:17;;;;;;;9.13;5.73;;;17.80;99.90;;;;;;5116889;28;20208;-69
2021/08/10 07:25:01;;;;;;;6.37;5.63;;;18.00;99.90;;;;;;5112957;28;20238;-72
2021/08/10 07:27:30;;;;;;;10.77;5.87;;;17.90;99.90;;;;;;5110171;28;20187;-70
2021/08/10 07:30:00;;;;;;;9.40;5.87;;;17.90;99.90;;;;;;5108535;28;20431;-69
2021/08/10 07:32:29;;;;;;;5.73;5.23;;;17.90;99.90;;;;;;5107826;28;20251;-70
2021/08/10 07:34:58;;;;;;;5.77;5.10;;;18.10;99.90;;;;;;5115262;28;20333;-70
2021/08/10 07:37:26;;;;;;;6.47;5.03;;;18.20;99.90;;;;;;5111057;28;20221;-69
2021/08/10 07:39:55;;;;;;;7.77;5.20;;;18.30;99.90;;;;;;5108161;28;20176;-70
2021/08/10 07:42:23;;;;;;;9.27;4.83;;;18.20;99.90;;;;;;5113690;27;20297;-70
2021/08/10 07:44:51;;;;;;;5.50;5.00;;;18.20;99.90;;;;;;5108319;28;20171;-70
2021/08/10 07:47:21;;;;;;;5.07;4.57;;;18.00;99.90;;;;;;5106853;28;20182;-70
2021/08/10 07:49:49;;;;;;;6.33;4.77;;;18.00;99.90;;;;;;5114648;28;20178;-70
2021/08/10 07:52:18;;;;;;;6.20;5.33;;;18.10;99.90;;;;;;5114249;28;20182;-69
2021/08/10 07:54:46;;;;;;;7.93;4.53;;;18.20;99.90;;;;;;5127373;27;20206;-70
2021/08/10 07:57:14;;;;;;;6.93;3.97;;;18.20;99.90;;;;;;5105212;28;20170;-70
2021/08/10 07:59:43;;;;;;;5.27;4.70;;;18.30;99.90;;;;;;5107171;28;20355;-69
2021/08/10 08:02:11;;;;;;;6.63;4.37;;;18.40;99.90;;;;;;5109286;28;20375;-70
2021/08/10 08:04:41;;;;;;;6.77;4.43;;;18.60;99.90;;;;;;5110818;28;20199;-70
2021/08/10 08:07:10;;;;;;;4.40;4.10;;;18.70;99.90;;;;;;5116582;28;20187;-70
2021/08/10 08:09:38;;;;;;;4.10;3.80;;;18.70;99.90;;;;;;5112507;28;20476;-70
2021/08/10 08:12:07;;;;;;;4.70;4.30;;;18.80;99.90;;;;;;5109917;28;20179;-70
2021/08/10 08:14:36;;;;;;;4.63;4.17;;;18.80;99.90;;;;;;5105380;28;20221;-70
2021/08/10 08:17:05;;;;;;;3.90;3.60;;;18.70;99.90;;;;;;5110106;28;20231;-70
2021/08/10 08:19:33;;;;;;;3.97;3.67;;;18.80;99.90;;;;;;5110654;28;20322;-69
2021/08/10 08:22:03;;;;;;;3.50;3.20;;;19.00;99.90;;;;;;5120240;28;20358;-70
2021/08/10 08:24:31;;;;;;;3.53;3.27;;;19.20;99.90;;;;;;5120650;28;20179;-70
2021/08/10 08:27:00;;;;;;;6.57;3.70;;;19.30;99.90;;;;;;5105938;28;20472;-70
2021/08/10 08:29:28;;;;;;;4.93;3.93;;;19.40;99.90;;;;;;5111625;28;20180;-69
2021/08/10 08:31:56;;;;;;;3.90;3.60;;;19.30;99.90;;;;;;5102975;28;20331;-71
2021/08/10 08:34:26;;;;;;;4.07;3.30;;;19.40;99.90;;;;;;5106679;28;20263;-70
2021/08/10 08:36:54;;;;;;;5.27;3.33;;;19.40;99.90;;;;;;5109584;27;20179;-70
2021/08/10 08:39:23;;;;;;;3.70;3.40;;;19.60;99.90;;;;;;5101701;28;20184;-70
2021/08/10 08:41:55;;;;;;;3.83;3.53;;;19.50;99.90;;;;;;5103077;28;20210;-70
2021/08/10 08:44:23;;;;;;;5.53;3.20;;;19.60;99.90;;;;;;5106860;28;20446;-69
2021/08/10 08:46:54;;;;;;;5.00;3.20;;;19.50;99.90;;;;;;5108938;28;20175;-70
2021/08/10 08:49:25;;;;;;;7.33;3.57;;;19.40;99.90;;;;;;5111049;28;20414;-69
2021/08/10 08:51:55;;;;;;;6.60;3.40;;;19.40;99.90;;;;;;5103210;28;20412;-70
2021/08/10 08:54:26;;;;;;;5.43;3.50;;;19.30;99.90;;;;;;5102622;28;20202;-70
2021/08/10 08:56:54;;;;;;;3.43;3.20;;;19.30;99.90;;;;;;5123391;28;20236;-68
2021/08/10 08:59:23;;;;;;;7.00;3.50;;;19.20;99.90;;;;;;5115600;28;20175;-70
2021/08/10 09:01:52;;;;;;;5.37;3.20;;;19.30;99.90;;;;;;5106097;28;20171;-70
2021/08/10 09:04:21;;;;;;;5.70;3.97;;;19.30;99.90;;;;;;5106354;28;20191;-70
2021/08/10 09:06:50;;;;;;;5.13;3.30;;;19.30;99.90;;;;;;5105732;28;20311;-70
2021/08/10 09:09:25;;;;;;;3.93;2.97;;;19.60;99.90;;;;;;5117794;27;20186;-70
2021/08/10 09:11:55;;;;;;;4.73;3.00;;;19.70;99.90;;;;;;5108151;27;20287;-70
2021/08/10 09:14:25;;;;;;;5.67;3.60;;;20.00;99.90;;;;;;5129397;27;20203;-69
2021/08/10 09:17:09;;;;;;;4.63;2.97;;;20.00;99.90;;;;;;5110798;27;20296;-70
2021/08/10 09:19:46;;;;;;;4.97;3.07;;;19.90;99.90;;;;;;5118290;27;20186;-70
2021/08/10 09:22:21;;;;;;;3.73;2.93;;;19.80;99.90;;;;;;5114835;28;20186;-70
2021/08/10 09:24:54;;;;;;;3.47;3.10;;;19.70;99.90;;;;;;5108421;28;20179;-69
2021/08/10 09:27:27;;;;;;;3.57;3.20;;;19.60;99.90;;;;;;5110780;28;20175;-70
2021/08/10 09:29:56;;;;;;;3.60;3.30;;;19.70;99.90;;;;;;5112238;27;20175;-70
2021/08/10 09:32:25;;;;;;;4.03;3.00;;;19.60;99.90;;;;;;5116934;27;20190;-70
2021/08/10 09:35:13;;;;;;;3.00;2.80;;;19.50;99.90;;;;;;5111728;28;20198;-69
2021/08/10 09:37:42;;;;;;;3.77;3.00;;;19.40;99.90;;;;;;5104009;28;20179;-70
2021/08/10 09:40:34;;;;;;;3.87;3.20;;;19.40;99.90;;;;;;5103791;28;20185;-67
2021/08/10 09:43:28;;;;;;;4.03;3.17;;;19.30;99.90;;;;;;5115428;28;20175;-70
2021/08/10 09:46:11;;;;;;;3.33;3.10;;;19.30;99.90;;;;;;5112155;28;20342;-70
2021/08/10 09:48:41;;;;;;;3.57;3.10;;;19.30;99.90;;;;;;5112945;27;20449;-69
2021/08/10 09:51:13;;;;;;;3.90;3.50;;;19.50;99.90;;;;;;5110974;28;20437;-70
2021/08/10 09:53:42;;;;;;;3.37;3.10;;;20.00;99.90;;;;;;5109833;28;20183;-70
2021/08/10 09:56:12;;;;;;;3.40;3.20;;;20.90;99.90;;;;;;5108257;28;20184;-70
2021/08/10 09:58:57;;;;;;;3.70;3.40;;;21.50;99.90;;;;;;5114706;28;20559;-70
2021/08/10 10:01:34;;;;;;;3.97;3.50;;;21.60;99.90;;;;;;5113950;28;20492;-69
2021/08/10 10:04:21;;;;;;;4.60;3.50;;;21.30;99.90;;;;;;5116409;28;20181;-70
2021/08/10 10:06:53;;;;;;;3.73;3.43;;;21.20;99.90;;;;;;5111267;28;20192;-70
2021/08/10 10:09:23;;;;;;;4.43;3.60;;;21.30;99.90;;;;;;5109850;27;20190;-70
2021/08/10 10:11:56;;;;;;;3.70;3.50;;;21.20;99.90;;;;;;5112885;28;20178;-70
2021/08/10 10:14:27;;;;;;;4.73;3.83;;;21.00;99.90;;;;;;5109989;28;20180;-70
2021/08/10 10:16:56;;;;;;;3.80;3.50;;;20.90;99.90;;;;;;5109375;28;20193;-70
2021/08/10 10:19:25;;;;;;;4.43;3.17;;;20.70;99.90;;;;;;5115021;27;20368;-71
2021/08/10 10:21:54;;;;;;;3.80;3.50;;;20.50;99.90;;;;;;5117410;28;20180;-70
2021/08/10 10:24:24;;;;;;;5.00;3.53;;;20.30;99.90;;;;;;5115119;28;20166;-70
2021/08/10 10:26:59;;;;;;;3.80;3.50;;;20.30;99.90;;;;;;5109460;28;20422;-70
2021/08/10 10:29:28;;;;;;;5.03;3.70;;;20.40;99.90;;;;;;5109874;28;20231;-70
2021/08/10 10:31:58;;;;;;;4.10;3.70;;;20.50;99.90;;;;;;5111828;28;20482;-70
2021/08/10 10:34:27;;;;;;;4.47;3.50;;;20.60;99.90;;;;;;5111226;28;20248;-70
2021/08/10 10:36:58;;;;;;;8.70;3.20;;;20.80;99.90;;;;;;5104926;28;20208;-71
2021/08/10 10:39:29;;;;;;;3.30;3.00;;;21.10;99.90;;;;;;5109118;27;20191;-70
2021/08/10 10:42:02;;;;;;;4.20;3.20;;;21.30;99.90;;;;;;5112986;28;20176;-71
2021/08/10 10:44:38;;;;;;;3.47;3.27;;;21.40;99.90;;;;;;5102304;28;20431;-69
2021/08/10 10:47:34;;;;;;;3.77;2.93;;;21.50;99.90;;;;;;5113084;28;20205;-71
2021/08/10 10:50:19;;;;;;;3.10;2.90;;;21.30;99.90;;;;;;5109581;27;20266;-71
2021/08/10 10:53:08;;;;;;;3.07;2.87;;;21.20;99.90;;;;;;5112456;28;20176;-71
2021/08/10 10:55:44;;;;;;;3.87;2.90;;;21.10;99.90;;;;;;5114017;28;20202;-71
2021/08/10 10:58:31;;;;;;;3.33;3.10;;;20.90;99.90;;;;;;5113668;27;20179;-71
2021/08/10 11:01:17;;;;;;;3.30;3.00;;;20.70;99.90;;;;;;5113495;27;20212;-71
2021/08/10 11:04:11;;;;;;;2.93;2.60;;;20.50;99.90;;;;;;5103316;28;20203;-71
2021/08/10 11:06:43;;;;;;;3.17;2.73;;;20.40;99.90;;;;;;5101525;28;20190;-71
2021/08/10 11:09:54;;;;;;;4.50;3.00;;;20.20;99.90;;;;;;5107306;28;20236;-70
2021/08/10 11:12:44;;;;;;;5.70;3.30;;;20.30;99.90;;;;;;5107336;28;20178;-71
2021/08/10 11:15:16;;;;;;;3.87;3.47;;;20.30;99.90;;;;;;5107383;28;20175;-70
2021/08/10 11:18:17;;;;;;;3.60;3.30;;;20.30;99.90;;;;;;5118767;28;20190;-71
2021/08/10 11:20:47;;;;;;;3.50;3.13;;;20.30;99.90;;;;;;5110694;28;20981;-70
2021/08/10 11:23:35;;;;;;;4.83;3.00;;;21.00;99.90;;;;;;5116857;28;20171;-71
2021/08/10 11:26:36;;;;;;;5.10;3.03;;;21.60;99.90;;;;;;5111982;28;20195;-70
2021/08/10 11:29:04;;;;;;;6.07;3.23;;;21.90;99.90;;;;;;5111868;28;20184;-71
2021/08/10 11:31:41;;;;;;;3.83;2.90;;;22.50;99.90;;;;;;5103888;28;20188;-71
2021/08/10 11:34:46;;;;;;;3.77;2.73;;;23.00;99.90;;;;;;5116466;27;20201;-71
2021/08/10 11:37:32;;;;;;;2.80;2.70;;;23.00;99.90;;;;;;5104695;28;20256;-71
2021/08/10 11:40:12;;;;;;;3.20;2.80;;;22.70;99.90;;;;;;5110116;28;20230;-71
2021/08/10 11:42:42;;;;;;;5.50;3.13;;;22.50;99.90;;;;;;5106734;28;20184;-71
2021/08/10 11:45:11;;;;;;;5.17;3.10;;;22.20;99.90;;;;;;5110247;28;20366;-71
2021/08/10 11:47:41;;;;;;;5.90;2.83;;;22.00;99.90;;;;;;5115759;27;20318;-71
2021/08/10 11:50:10;;;;;;;3.10;2.90;;;21.90;99.90;;;;;;5112723;28;20197;-71
2021/08/10 11:52:56;;;;;;;2.93;2.50;;;21.80;99.90;;;;;;5106987;28;20203;-71
2021/08/10 11:55:30;;;;;;;6.53;3.00;;;21.50;99.90;;;;;;5108644;28;20207;-70
2021/08/10 11:58:00;;;;;;;3.40;3.03;;;21.40;99.90;;;;;;5108383;28;20458;-70
2021/08/10 12:00:31;;;;;;;7.93;3.23;;;21.40;99.90;;;;;;5112552;28;20223;-71
2021/08/10 12:03:05;;;;;;;3.30;3.10;;;21.40;99.90;;;;;;5113243;28;20191;-71
2021/08/10 12:05:33;;;;;;;4.33;2.77;;;21.40;99.90;;;;;;5107666;28;20177;-71
2021/08/10 12:08:03;;;;;;;3.37;2.53;;;21.70;99.90;;;;;;5117714;28;20238;-71
2021/08/10 12:10:34;;;;;;;4.60;3.13;;;21.70;99.90;;;;;;5108954;28;20179;-71
2021/08/10 12:13:18;;;;;;;3.83;3.00;;;21.80;99.90;;;;;;5109729;28;20259;-71
2021/08/10 12:15:46;;;;;;;4.63;2.93;;;21.80;99.90;;;;;;5108207;28;20214;-71
2021/08/10 12:18:19;;;;;;;3.47;3.10;;;21.80;99.90;;;;;;5102446;28;20215;-71
2021/08/10 12:21:02;;;;;;;5.13;3.03;;;21.80;99.90;;;;;;5099141;28;20190;-71
2021/08/10 12:23:39;;;;;;;3.83;2.93;;;21.80;99.90;;;;;;5113856;28;20187;-70
2021/08/10 12:26:12;;;;;;;3.17;2.87;;;21.80;99.90;;;;;;5122862;28;20174;-71
2021/08/10 12:28:57;;;;;;;3.30;3.00;;;21.60;99.90;;;;;;5107513;28;20307;-69
2021/08/10 12:31:26;;;;;;;5.80;2.90;;;21.60;99.90;;;;;;5103777;28;20182;-70
2021/08/10 12:33:58;;;;;;;3.40;3.20;;;21.50;99.90;;;;;;5109298;28;20482;-69
2021/08/10 12:36:28;;;;;;;4.33;3.20;;;21.40;99.90;;;;;;5119024;27;20199;-70
2021/08/10 12:39:02;;;;;;;3.87;3.47;;;21.30;99.90;;;;;;5113060;27;20182;-70
2021/08/10 12:41:32;;;;;;;4.97;3.30;;;21.20;99.90;;;;;;5113711;27;20423;-70
2021/08/10 12:44:01;;;;;;;3.50;3.20;;;21.10;99.90;;;;;;5107742;28;20179;-69
2021/08/10 12:46:34;;;;;;;5.47;3.40;;;20.90;99.90;;;;;;5115322;27;20191;-70
2021/08/10 12:49:13;;;;;;;3.50;3.20;;;20.70;99.90;;;;;;5111199;27;20179;-70
2021/08/10 12:51:54;;;;;;;3.37;3.00;;;20.50;99.90;;;;;;5108758;27;20317;-69
2021/08/10 12:54:25;;;;;;;3.70;2.90;;;20.30;99.90;;;;;;5110714;28;20176;-69
2021/08/10 12:56:54;;;;;;;2.83;2.37;;;19.90;99.90;;;;;;5115521;27;20197;-69
2021/08/10 12:59:45;;;;;;;2.60;2.40;;;19.60;99.90;;;;;;5113443;28;20446;-68
2021/08/10 13:02:13;;;;;;;3.60;2.57;;;19.40;99.90;;;;;;5109607;28;20359;-69
2021/08/10 13:04:57;;;;;;;2.93;2.70;;;19.20;99.90;;;;;;5115763;27;20206;-69
2021/08/10 13:07:26;;;;;;;2.40;2.30;;;19.00;99.90;;;;;;5114247;27;20215;-68
2021/08/10 13:09:56;;;;;;;2.47;2.37;;;18.80;99.90;;;;;;5114669;28;20179;-69